Time;durP1;ratioP1;P1;durP2;ratioP2;P2;SDS_P1;SDS_P2;PMS_P1;PMS_P2;Temp;Humidity;BMP_temperature;BMP_pressure;BME280_temperature;BME280_humidity;BME280_pressure;Samples;Min_cycle;Max_cycle;Signal;HPM_P1;HPM_P2
2022/11/14 00:00:42;;;;;;;61.40;34.15;;;5.30;99.90;;;;;;5055954;28;20044;-44
2022/11/14 00:03:09;;;;;;;58.40;32.13;;;5.30;99.90;;;;;;5055847;28;20048;-42
2022/11/14 00:05:43;;;;;;;54.80;31.17;;;5.30;99.90;;;;;;5055581;28;20055;-43
2022/11/14 00:08:18;;;;;;;57.97;31.30;;;5.30;99.90;;;;;;5055447;28;20729;-42
2022/11/14 00:10:46;;;;;;;58.13;31.27;;;5.40;99.90;;;;;;5055121;28;20048;-43
2022/11/14 00:13:12;;;;;;;55.88;33.00;;;5.40;99.90;;;;;;5055865;28;20059;-42
2022/11/14 00:15:37;;;;;;;55.47;31.77;;;5.40;99.90;;;;;;5054880;28;20052;-44
2022/11/14 00:18:03;;;;;;;56.47;29.25;;;5.40;99.90;;;;;;5054745;28;20060;-42
2022/11/14 00:20:29;;;;;;;61.72;30.63;;;5.40;99.90;;;;;;5055583;28;20048;-46
2022/11/14 00:22:54;;;;;;;62.08;31.70;;;5.40;99.90;;;;;;5051459;28;20281;-41
2022/11/14 00:25:20;;;;;;;55.90;31.58;;;5.50;99.90;;;;;;5055247;28;20120;-43
2022/11/14 00:27:46;;;;;;;60.88;31.17;;;5.50;99.90;;;;;;5055628;28;20044;-48
2022/11/14 00:30:11;;;;;;;58.33;31.08;;;5.50;99.90;;;;;;5055433;28;20071;-44
2022/11/14 00:32:37;;;;;;;56.63;30.70;;;5.50;99.90;;;;;;5053416;28;20048;-47
2022/11/14 00:35:03;;;;;;;60.63;31.25;;;5.60;99.90;;;;;;5054680;28;20055;-45
2022/11/14 00:37:29;;;;;;;57.45;29.77;;;5.60;99.90;;;;;;5055057;28;20467;-45
2022/11/14 00:39:54;;;;;;;62.97;32.47;;;5.60;99.90;;;;;;5055328;28;20056;-42
2022/11/14 00:42:20;;;;;;;56.67;31.50;;;5.60;99.90;;;;;;5051050;28;20052;-44
2022/11/14 00:44:45;;;;;;;60.35;32.25;;;5.70;99.90;;;;;;5054959;28;20093;-45
2022/11/14 00:47:11;;;;;;;59.60;30.98;;;5.60;99.90;;;;;;5054972;28;20462;-44
2022/11/14 00:49:37;;;;;;;57.45;31.20;;;5.70;99.90;;;;;;5054897;28;20553;-42
2022/11/14 00:52:02;;;;;;;65.57;33.05;;;5.70;99.90;;;;;;5054360;28;20052;-43
2022/11/14 00:54:28;;;;;;;62.13;34.60;;;5.80;99.90;;;;;;5054168;28;20066;-43
2022/11/14 00:56:54;;;;;;;60.97;31.05;;;5.80;99.90;;;;;;5053816;28;20410;-44
2022/11/14 00:59:19;;;;;;;60.83;32.35;;;5.70;99.90;;;;;;5055944;28;20051;-41
2022/11/14 01:01:45;;;;;;;56.63;31.50;;;5.80;99.90;;;;;;5053449;28;20084;-40
2022/11/14 01:04:10;;;;;;;60.60;32.80;;;5.80;99.90;;;;;;5054519;28;20542;-44
2022/11/14 01:06:36;;;;;;;58.58;32.55;;;5.90;99.90;;;;;;5055210;28;20501;-45
2022/11/14 01:09:02;;;;;;;60.70;34.55;;;5.90;99.90;;;;;;5055394;28;20056;-45
2022/11/14 01:11:27;;;;;;;56.28;33.35;;;5.90;99.90;;;;;;5054793;28;20061;-41
2022/11/14 01:13:53;;;;;;;59.42;33.10;;;5.90;99.90;;;;;;5055010;28;20044;-48
2022/11/14 01:16:19;;;;;;;58.45;31.80;;;5.90;99.90;;;;;;5053355;28;20103;-50
2022/11/14 01:18:44;;;;;;;55.10;32.13;;;5.90;99.90;;;;;;5054581;28;20109;-42
2022/11/14 01:21:12;;;;;;;52.05;31.45;;;5.90;99.90;;;;;;5050608;28;20589;-43
2022/11/14 01:23:37;;;;;;;54.90;33.75;;;5.90;99.90;;;;;;5053985;28;20111;-46
2022/11/14 01:26:06;;;;;;;56.42;33.63;;;5.90;99.90;;;;;;5053653;28;20529;-42
2022/11/14 01:28:32;;;;;;;53.95;34.10;;;5.90;99.90;;;;;;5055099;28;20411;-45
2022/11/14 01:31:25;;;;;;;55.33;32.88;;;6.00;99.90;;;;;;5052473;28;20052;-42
2022/11/14 01:33:52;;;;;;;52.88;31.48;;;6.00;99.90;;;;;;5054601;28;20410;-46
2022/11/14 01:36:18;;;;;;;52.28;30.92;;;6.00;99.90;;;;;;5054639;28;20048;-42
2022/11/14 01:38:45;;;;;;;51.53;32.53;;;6.00;99.90;;;;;;5054920;28;20045;-42
2022/11/14 01:41:15;;;;;;;50.60;31.30;;;6.00;99.90;;;;;;5049452;28;20743;-43
2022/11/14 01:43:41;;;;;;;52.80;31.38;;;6.00;99.90;;;;;;5054100;28;20340;-43
2022/11/14 01:46:17;;;;;;;53.97;33.67;;;6.00;99.90;;;;;;5053851;28;20049;-44
2022/11/14 01:49:12;;;;;;;49.97;31.45;;;6.00;99.90;;;;;;5054443;28;20107;-43
2022/11/14 01:51:50;;;;;;;46.35;30.67;;;6.10;99.90;;;;;;5043131;28;20135;-44
2022/11/14 01:54:33;;;;;;;48.40;30.63;;;6.00;99.90;;;;;;5052669;28;20045;-47
2022/11/14 01:57:01;;;;;;;52.03;33.40;;;6.00;99.90;;;;;;5052200;28;20068;-45
2022/11/14 01:59:37;;;;;;;49.28;31.90;;;6.10;99.90;;;;;;5054832;28;20452;-44
2022/11/14 02:02:17;;;;;;;52.03;32.30;;;6.00;99.90;;;;;;5054144;28;20522;-44
2022/11/14 02:04:50;;;;;;;54.13;34.00;;;6.00;99.90;;;;;;5054809;28;20157;-43
2022/11/14 02:07:17;;;;;;;49.45;32.08;;;6.00;99.90;;;;;;5055513;28;20656;-49
2022/11/14 02:09:45;;;;;;;51.03;33.55;;;6.10;99.90;;;;;;5055363;28;20585;-43
2022/11/14 02:12:18;;;;;;;50.20;32.97;;;6.10;99.90;;;;;;5053807;28;20057;-44
2022/11/14 02:14:45;;;;;;;51.15;34.33;;;6.10;99.90;;;;;;5052130;28;20091;-43
2022/11/14 02:17:12;;;;;;;54.42;33.83;;;6.10;99.90;;;;;;5054570;28;20071;-43
2022/11/14 02:19:50;;;;;;;51.15;32.85;;;6.00;99.90;;;;;;5054372;28;20057;-42
2022/11/14 02:22:16;;;;;;;56.88;36.17;;;6.00;99.90;;;;;;5049785;28;20071;-43
2022/11/14 02:24:43;;;;;;;51.33;34.22;;;6.00;99.90;;;;;;5053663;28;20223;-42
2022/11/14 02:27:10;;;;;;;51.28;33.03;;;5.90;99.90;;;;;;5053854;28;20052;-41
2022/11/14 02:29:36;;;;;;;49.45;33.92;;;6.00;99.90;;;;;;5053874;28;20051;-42
2022/11/14 02:32:02;;;;;;;50.47;35.10;;;5.90;99.90;;;;;;5053679;28;20053;-45
2022/11/14 02:34:28;;;;;;;49.15;34.00;;;5.90;99.90;;;;;;5057152;28;20044;-45
2022/11/14 02:36:54;;;;;;;53.30;34.90;;;5.90;99.90;;;;;;5057591;28;20525;-42
2022/11/14 02:39:20;;;;;;;58.53;37.13;;;5.90;99.90;;;;;;5057890;28;20048;-44
2022/11/14 02:41:45;;;;;;;54.53;36.03;;;5.90;99.90;;;;;;5053103;28;20044;-45
2022/11/14 02:44:11;;;;;;;56.55;35.50;;;5.90;99.90;;;;;;5056131;28;20040;-41
2022/11/14 02:46:37;;;;;;;53.55;35.88;;;5.90;99.90;;;;;;5056552;28;20056;-42
2022/11/14 02:49:02;;;;;;;56.53;34.33;;;5.90;99.90;;;;;;5057084;28;20052;-43
2022/11/14 02:51:28;;;;;;;55.28;36.45;;;5.80;99.90;;;;;;5056726;28;20468;-43
2022/11/14 02:53:53;;;;;;;56.30;36.95;;;5.90;99.90;;;;;;5054881;28;20505;-48
2022/11/14 02:56:19;;;;;;;55.45;37.72;;;5.90;99.90;;;;;;5057799;28;20060;-44
2022/11/14 02:58:45;;;;;;;61.03;37.78;;;5.80;99.90;;;;;;5056384;28;20454;-43
2022/11/14 03:01:10;;;;;;;60.50;39.40;;;5.90;99.90;;;;;;5056314;28;20604;-43
2022/11/14 03:03:36;;;;;;;62.97;39.85;;;5.90;99.90;;;;;;5056535;28;20834;-43
2022/11/14 03:06:03;;;;;;;63.45;38.97;;;5.90;99.90;;;;;;5056314;28;20528;-43
2022/11/14 03:08:28;;;;;;;66.80;41.95;;;5.90;99.90;;;;;;5056963;28;20056;-46
2022/11/14 03:10:54;;;;;;;64.20;39.70;;;6.00;99.90;;;;;;5056372;28;20044;-45
2022/11/14 03:13:20;;;;;;;66.95;40.95;;;6.00;99.90;;;;;;5056734;28;20044;-43
2022/11/14 03:15:46;;;;;;;67.85;43.20;;;6.00;99.90;;;;;;5055773;28;20057;-44
2022/11/14 03:18:12;;;;;;;71.30;42.92;;;5.90;99.90;;;;;;5057121;28;20225;-43
2022/11/14 03:20:38;;;;;;;65.35;40.45;;;6.00;99.90;;;;;;5056674;28;20107;-43
2022/11/14 03:23:04;;;;;;;66.60;41.83;;;6.00;99.90;;;;;;5053290;28;20040;-41
2022/11/14 03:25:29;;;;;;;68.78;43.25;;;6.00;99.90;;;;;;5056016;28;20556;-48
2022/11/14 03:27:55;;;;;;;68.28;44.28;;;6.00;99.90;;;;;;5056212;28;20479;-44
2022/11/14 03:30:20;;;;;;;67.45;43.78;;;5.90;99.90;;;;;;5056649;28;20044;-44
2022/11/14 03:32:46;;;;;;;71.45;44.50;;;6.00;99.90;;;;;;5056165;28;20056;-44
2022/11/14 03:35:12;;;;;;;75.88;45.72;;;5.90;99.90;;;;;;5054898;28;20144;-45
2022/11/14 03:37:38;;;;;;;72.72;45.28;;;5.90;99.90;;;;;;5055934;28;20044;-44
2022/11/14 03:40:04;;;;;;;71.90;45.05;;;5.90;99.90;;;;;;5053365;28;20056;-43
2022/11/14 03:42:33;;;;;;;75.57;47.58;;;5.90;99.90;;;;;;5051975;28;20161;-41
2022/11/14 03:44:59;;;;;;;70.63;42.55;;;5.90;99.90;;;;;;5054998;28;20182;-46
2022/11/14 03:47:25;;;;;;;72.07;44.95;;;5.90;99.90;;;;;;5056464;28;20044;-41
2022/11/14 03:49:50;;;;;;;69.53;43.90;;;5.90;99.90;;;;;;5054818;28;20055;-44
2022/11/14 03:52:16;;;;;;;72.82;43.78;;;5.90;99.90;;;;;;5055327;28;20048;-43
2022/11/14 03:54:41;;;;;;;70.90;45.22;;;5.90;99.90;;;;;;5054090;28;20535;-42
2022/11/14 03:57:07;;;;;;;73.60;42.95;;;5.90;99.90;;;;;;5056039;28;20556;-44
2022/11/14 03:59:33;;;;;;;75.32;46.60;;;5.90;99.90;;;;;;5055715;28;20098;-44
2022/11/14 04:01:58;;;;;;;76.68;44.97;;;5.90;99.90;;;;;;5054003;28;20472;-46
2022/11/14 04:04:24;;;;;;;77.45;46.42;;;5.80;99.90;;;;;;5056030;28;20481;-45
2022/11/14 04:06:49;;;;;;;75.13;47.35;;;5.80;99.90;;;;;;5056155;28;20519;-44
2022/11/14 04:09:15;;;;;;;78.90;48.63;;;5.90;99.90;;;;;;5054367;28;20059;-41
2022/11/14 04:11:41;;;;;;;74.63;45.17;;;5.80;99.90;;;;;;5055260;28;20059;-43
2022/11/14 04:14:06;;;;;;;77.25;47.38;;;5.80;99.90;;;;;;5054726;28;20056;-46
2022/11/14 04:16:32;;;;;;;76.63;46.58;;;5.80;99.90;;;;;;5055675;28;20431;-42
2022/11/14 04:18:57;;;;;;;78.60;45.25;;;5.80;99.90;;;;;;5055437;28;20061;-42
2022/11/14 04:21:23;;;;;;;79.45;48.00;;;5.80;99.90;;;;;;5051614;28;20072;-43
2022/11/14 04:23:49;;;;;;;75.90;47.05;;;5.80;99.90;;;;;;5054246;28;20056;-44
2022/11/14 04:26:14;;;;;;;76.57;49.35;;;5.80;99.90;;;;;;5055203;28;20456;-43
2022/11/14 04:28:40;;;;;;;79.53;47.45;;;5.70;99.90;;;;;;5055422;28;20048;-43
2022/11/14 04:31:05;;;;;;;79.20;48.85;;;5.70;99.90;;;;;;5054242;28;20136;-42
2022/11/14 04:33:31;;;;;;;80.63;48.00;;;5.70;99.90;;;;;;5055283;28;20433;-43
2022/11/14 04:35:57;;;;;;;79.97;46.28;;;5.70;99.90;;;;;;5054166;28;20048;-43
2022/11/14 04:38:22;;;;;;;74.03;46.40;;;5.70;99.90;;;;;;5055795;28;20055;-44
2022/11/14 04:40:52;;;;;;;79.90;47.15;;;5.70;99.90;;;;;;5050149;28;20048;-44
2022/11/14 04:43:18;;;;;;;78.68;47.38;;;5.70;99.90;;;;;;5055579;28;20056;-44
2022/11/14 04:45:45;;;;;;;81.93;50.67;;;5.70;99.90;;;;;;5054702;28;20048;-43
2022/11/14 04:48:11;;;;;;;82.65;48.55;;;5.60;99.90;;;;;;5055480;28;20503;-43
2022/11/14 04:50:37;;;;;;;80.00;48.80;;;5.70;99.90;;;;;;5054311;28;20083;-43
2022/11/14 04:53:02;;;;;;;86.30;48.90;;;5.60;99.90;;;;;;5055224;28;20175;-43
2022/11/14 04:55:28;;;;;;;85.50;50.03;;;5.70;99.90;;;;;;5053845;28;20681;-42
2022/11/14 04:57:55;;;;;;;83.65;50.47;;;5.70;99.90;;;;;;5055644;28;20135;-47
2022/11/14 05:00:21;;;;;;;81.65;49.35;;;5.70;99.90;;;;;;5052799;28;20063;-48
2022/11/14 05:02:47;;;;;;;82.55;50.13;;;5.60;99.90;;;;;;5044132;28;20135;-41
2022/11/14 05:05:13;;;;;;;78.05;47.28;;;5.60;99.90;;;;;;5052614;28;20071;-44
2022/11/14 05:07:39;;;;;;;82.88;50.20;;;5.60;99.90;;;;;;5053616;28;20101;-44
2022/11/14 05:10:05;;;;;;;80.15;48.72;;;5.60;99.90;;;;;;5054276;28;20048;-44
2022/11/14 05:12:30;;;;;;;81.47;48.75;;;5.60;99.90;;;;;;5036564;28;20511;-43
2022/11/14 05:14:56;;;;;;;81.50;48.20;;;5.50;99.90;;;;;;5054233;28;20040;-46
2022/11/14 05:17:22;;;;;;;83.30;49.22;;;5.50;99.90;;;;;;5054650;28;20427;-46
2022/11/14 05:19:47;;;;;;;82.25;48.75;;;5.50;99.90;;;;;;5054439;28;20048;-45
2022/11/14 05:22:13;;;;;;;80.97;49.30;;;5.50;99.90;;;;;;5050242;28;20123;-44
2022/11/14 05:24:39;;;;;;;73.47;44.05;;;5.50;99.90;;;;;;5053898;28;20090;-41
2022/11/14 05:27:04;;;;;;;75.15;47.50;;;5.50;99.90;;;;;;5054594;28;20106;-44
2022/11/14 05:29:30;;;;;;;81.90;49.95;;;5.50;99.90;;;;;;5054429;28;20688;-41
2022/11/14 05:31:56;;;;;;;82.75;48.22;;;5.50;99.90;;;;;;5054009;28;20181;-40
2022/11/14 05:34:23;;;;;;;76.60;44.33;;;5.50;99.90;;;;;;5054421;28;20341;-43
2022/11/14 05:36:48;;;;;;;76.90;44.65;;;5.50;99.90;;;;;;5054580;28;20075;-41
2022/11/14 05:39:15;;;;;;;77.68;46.30;;;5.50;99.90;;;;;;5054181;28;20053;-44
2022/11/14 05:41:41;;;;;;;79.82;47.08;;;5.50;99.90;;;;;;5049450;28;20052;-44
2022/11/14 05:44:06;;;;;;;77.55;48.30;;;5.50;99.90;;;;;;5053387;28;20056;-41
2022/11/14 05:46:32;;;;;;;78.20;47.85;;;5.50;99.90;;;;;;5053896;28;20123;-41
2022/11/14 05:48:58;;;;;;;76.97;46.90;;;5.50;99.90;;;;;;5052487;28;20131;-41
2022/11/14 05:51:23;;;;;;;76.10;48.28;;;5.50;99.90;;;;;;5052705;28;20060;-41
2022/11/14 05:53:49;;;;;;;79.18;47.38;;;5.50;99.90;;;;;;5053642;28;20048;-41
2022/11/14 05:56:15;;;;;;;79.07;51.03;;;5.50;99.90;;;;;;5052799;28;20146;-41
2022/11/14 05:58:40;;;;;;;87.25;51.47;;;5.50;99.90;;;;;;5052643;28;20095;-47
2022/11/14 06:01:14;;;;;;;79.72;47.17;;;5.50;99.90;;;;;;5052950;28;20656;-42
2022/11/14 06:03:45;;;;;;;80.55;47.17;;;5.50;99.90;;;;;;5053451;28;20076;-46
2022/11/14 06:06:13;;;;;;;79.30;47.00;;;5.50;99.90;;;;;;5054601;28;20044;-44
2022/11/14 06:08:39;;;;;;;74.50;46.80;;;5.50;99.90;;;;;;5056795;28;20098;-46
2022/11/14 06:11:14;;;;;;;82.07;49.75;;;5.50;99.90;;;;;;5057755;28;20048;-44
2022/11/14 06:13:40;;;;;;;81.97;50.50;;;5.50;99.90;;;;;;5057315;28;20049;-40
2022/11/14 06:16:09;;;;;;;81.13;48.72;;;5.50;99.90;;;;;;5058046;28;20359;-46
2022/11/14 06:18:35;;;;;;;83.00;50.20;;;5.50;99.90;;;;;;5058155;28;20550;-40
2022/11/14 06:21:04;;;;;;;78.28;48.50;;;5.50;99.90;;;;;;5056711;28;20105;-43
2022/11/14 06:23:29;;;;;;;83.80;52.90;;;5.50;99.90;;;;;;5055457;28;20640;-44
2022/11/14 06:26:00;;;;;;;93.30;61.25;;;5.60;99.90;;;;;;5057652;28;20566;-45
2022/11/14 06:28:26;;;;;;;75.78;46.42;;;5.50;99.90;;;;;;5057882;28;20130;-42
2022/11/14 06:30:57;;;;;;;77.03;48.65;;;5.50;99.90;;;;;;5057029;28;20135;-50
2022/11/14 06:33:22;;;;;;;83.20;49.70;;;5.60;99.90;;;;;;5057768;28;20127;-45
2022/11/14 06:35:48;;;;;;;84.43;55.08;;;5.60;99.90;;;;;;5057581;28;20550;-40
2022/11/14 06:38:14;;;;;;;77.53;46.38;;;5.60;99.90;;;;;;5058103;28;20195;-43
2022/11/14 06:40:39;;;;;;;86.22;53.90;;;5.50;99.90;;;;;;5053233;28;20487;-43
2022/11/14 06:43:05;;;;;;;80.70;50.53;;;5.50;99.90;;;;;;5057341;28;20495;-42
2022/11/14 06:45:30;;;;;;;84.18;50.28;;;5.60;99.90;;;;;;5056598;28;20081;-41
2022/11/14 06:47:59;;;;;;;83.10;53.10;;;5.60;99.90;;;;;;5056901;28;20048;-41
2022/11/14 06:50:25;;;;;;;78.20;47.22;;;5.60;99.90;;;;;;5056764;28;20048;-43
2022/11/14 06:52:51;;;;;;;87.72;54.00;;;5.60;99.90;;;;;;5056350;28;20500;-44
2022/11/14 06:55:16;;;;;;;77.22;51.22;;;5.60;99.90;;;;;;5055090;28;20048;-47
2022/11/14 06:57:42;;;;;;;83.43;52.47;;;5.60;99.90;;;;;;5057107;28;20059;-43
2022/11/14 07:00:08;;;;;;;85.78;52.65;;;5.50;99.90;;;;;;5055114;28;20114;-46
2022/11/14 07:02:34;;;;;;;90.57;61.67;;;5.50;99.90;;;;;;5056430;28;20134;-41
2022/11/14 07:04:59;;;;;;;79.38;49.60;;;5.50;99.90;;;;;;5055866;28;20044;-43
2022/11/14 07:07:25;;;;;;;80.03;51.53;;;5.50;99.90;;;;;;5057205;28;20341;-42
2022/11/14 07:09:53;;;;;;;82.95;51.95;;;5.50;99.90;;;;;;5056914;28;20044;-45
2022/11/14 07:12:18;;;;;;;85.05;51.95;;;5.50;99.90;;;;;;5056752;28;20150;-40
2022/11/14 07:14:44;;;;;;;81.13;50.17;;;5.40;99.90;;;;;;5056203;28;20399;-43
2022/11/14 07:17:09;;;;;;;82.05;47.53;;;5.50;99.90;;;;;;5056975;28;20459;-41
2022/11/14 07:19:35;;;;;;;77.63;49.20;;;5.50;99.90;;;;;;5055711;28;20084;-41
2022/11/14 07:22:01;;;;;;;79.95;48.15;;;5.40;99.90;;;;;;5051862;28;20084;-44
2022/11/14 07:24:26;;;;;;;78.38;45.97;;;5.40;99.90;;;;;;5055912;28;20048;-46
2022/11/14 07:26:52;;;;;;;76.60;45.58;;;5.40;99.90;;;;;;5056846;28;20063;-43
2022/11/14 07:29:17;;;;;;;77.32;47.83;;;5.50;99.90;;;;;;5057108;28;20048;-43
2022/11/14 07:31:43;;;;;;;80.05;47.90;;;5.40;99.90;;;;;;5057182;28;20131;-44
2022/11/14 07:34:10;;;;;;;77.97;47.38;;;5.50;99.90;;;;;;5055391;28;20426;-41
2022/11/14 07:36:35;;;;;;;95.18;47.70;;;5.40;99.90;;;;;;5057584;28;20520;-41
2022/11/14 07:39:01;;;;;;;77.47;45.30;;;5.40;99.90;;;;;;5055208;28;20135;-46
2022/11/14 07:41:26;;;;;;;77.55;47.65;;;5.50;99.90;;;;;;5052570;28;20052;-45
2022/11/14 07:43:52;;;;;;;77.70;47.00;;;5.50;99.90;;;;;;5056200;28;20055;-42
2022/11/14 07:46:18;;;;;;;79.60;47.90;;;5.50;99.90;;;;;;5055016;28;20288;-47
2022/11/14 07:48:44;;;;;;;83.47;49.63;;;5.50;99.90;;;;;;5056820;28;20101;-46
2022/11/14 07:51:14;;;;;;;78.15;47.30;;;5.50;99.90;;;;;;5056422;28;20044;-41
2022/11/14 07:53:40;;;;;;;71.75;45.22;;;5.60;99.90;;;;;;5055668;28;20048;-48
2022/11/14 07:56:10;;;;;;;76.60;46.05;;;5.50;99.90;;;;;;5056271;28;20094;-44
2022/11/14 07:58:39;;;;;;;78.25;47.53;;;5.50;99.90;;;;;;5056172;28;20040;-43
2022/11/14 08:01:07;;;;;;;81.68;50.22;;;5.50;99.90;;;;;;5055985;28;20499;-42
2022/11/14 08:03:33;;;;;;;74.88;46.25;;;5.60;99.90;;;;;;5055751;28;20052;-43
2022/11/14 08:06:04;;;;;;;83.30;48.67;;;5.60;99.90;;;;;;5055586;28;20044;-47
2022/11/14 08:08:30;;;;;;;81.70;49.40;;;5.60;99.90;;;;;;5055871;28;20126;-42
2022/11/14 08:10:59;;;;;;;81.13;46.70;;;5.60;99.90;;;;;;5055586;28;20563;-42
2022/11/14 08:13:25;;;;;;;77.25;48.08;;;5.60;99.90;;;;;;5055068;28;20495;-42
2022/11/14 08:15:50;;;;;;;80.60;47.60;;;5.70;99.90;;;;;;5055856;28;20040;-41
2022/11/14 08:18:16;;;;;;;80.82;48.17;;;5.70;99.90;;;;;;5056329;28;20352;-45
2022/11/14 08:20:42;;;;;;;82.40;49.88;;;5.70;99.90;;;;;;5054956;28;20048;-42
2022/11/14 08:23:08;;;;;;;82.03;48.33;;;5.80;99.90;;;;;;5051812;28;20064;-41
2022/11/14 08:25:34;;;;;;;79.40;48.33;;;5.90;99.90;;;;;;5054846;28;20457;-42
2022/11/14 08:28:00;;;;;;;74.47;45.65;;;5.80;99.90;;;;;;5055142;28;20101;-43
2022/11/14 08:30:26;;;;;;;78.80;47.22;;;5.90;99.90;;;;;;5055404;28;20398;-43
2022/11/14 08:32:51;;;;;;;72.78;45.65;;;5.90;99.90;;;;;;5055440;28;20047;-46
2022/11/14 08:35:17;;;;;;;77.85;46.65;;;5.90;99.90;;;;;;5054939;28;20380;-43
2022/11/14 08:37:43;;;;;;;73.47;46.00;;;5.90;99.90;;;;;;5056408;28;20106;-45
2022/11/14 08:40:09;;;;;;;82.70;50.78;;;5.80;99.90;;;;;;5053466;28;20507;-43
2022/11/14 08:42:35;;;;;;;77.55;47.70;;;5.80;99.90;;;;;;5052929;28;20056;-41
2022/11/14 08:45:00;;;;;;;75.25;46.55;;;5.90;99.90;;;;;;5054564;28;20053;-42
2022/11/14 08:47:26;;;;;;;71.65;45.17;;;5.90;99.90;;;;;;5055760;28;20044;-42
2022/11/14 08:49:52;;;;;;;77.00;46.65;;;5.90;99.90;;;;;;5054082;28;20101;-44
2022/11/14 08:52:17;;;;;;;71.75;43.97;;;5.90;99.90;;;;;;5053330;28;20052;-44
2022/11/14 08:54:43;;;;;;;71.47;44.42;;;6.00;99.90;;;;;;5054496;28;20560;-42
2022/11/14 08:57:10;;;;;;;75.70;45.42;;;6.00;99.90;;;;;;5054427;28;20055;-43
2022/11/14 08:59:36;;;;;;;77.88;47.35;;;6.00;99.90;;;;;;5055184;28;20129;-42
2022/11/14 09:02:02;;;;;;;72.95;45.55;;;6.10;99.90;;;;;;5054062;28;20403;-45
2022/11/14 09:04:27;;;;;;;77.45;46.40;;;6.10;99.90;;;;;;5053683;28;20152;-41
2022/11/14 09:06:53;;;;;;;76.07;46.10;;;6.10;99.90;;;;;;5054109;28;20048;-44
2022/11/14 09:09:18;;;;;;;72.43;46.47;;;6.10;99.90;;;;;;5054316;28;20088;-41
2022/11/14 09:11:44;;;;;;;75.13;46.33;;;6.10;99.90;;;;;;5053514;28;20048;-44
2022/11/14 09:14:10;;;;;;;70.00;43.97;;;6.20;99.90;;;;;;5054054;28;20059;-42
2022/11/14 09:16:35;;;;;;;77.10;47.30;;;6.20;99.90;;;;;;5054121;28;20101;-43
2022/11/14 09:19:01;;;;;;;73.88;45.00;;;6.20;99.90;;;;;;5054508;28;20495;-44
2022/11/14 09:21:27;;;;;;;75.25;47.08;;;6.20;99.90;;;;;;5051020;28;20121;-44
2022/11/14 09:23:52;;;;;;;70.78;44.10;;;6.30;99.90;;;;;;5054300;28;20048;-42
2022/11/14 09:26:18;;;;;;;75.72;46.60;;;6.30;99.90;;;;;;5054343;28;20052;-46
2022/11/14 09:28:44;;;;;;;76.68;46.13;;;6.30;99.90;;;;;;5054926;28;20444;-45
2022/11/14 09:31:12;;;;;;;77.28;47.13;;;6.30;99.90;;;;;;5053740;28;20624;-44
2022/11/14 09:33:38;;;;;;;72.07;45.50;;;6.40;99.90;;;;;;5053632;28;20639;-41
2022/11/14 09:36:06;;;;;;;69.70;42.53;;;6.40;99.90;;;;;;5053494;28;20051;-42
2022/11/14 09:38:33;;;;;;;73.28;44.60;;;6.40;99.90;;;;;;5054166;28;20048;-42
2022/11/14 09:41:07;;;;;;;68.93;44.38;;;6.30;99.90;;;;;;5049299;28;20052;-46
2022/11/14 09:43:58;;;;;;;69.80;43.95;;;6.30;99.90;;;;;;5054076;28;20086;-46
2022/11/14 09:46:39;;;;;;;69.25;42.95;;;6.30;99.90;;;;;;5052792;28;20517;-44
2022/11/14 09:49:18;;;;;;;66.90;42.22;;;6.30;99.90;;;;;;5053904;28;20097;-43
2022/11/14 09:51:48;;;;;;;67.80;43.70;;;6.30;99.90;;;;;;5053751;28;20085;-42
2022/11/14 09:54:19;;;;;;;65.00;43.00;;;6.30;99.90;;;;;;5053027;28;20052;-45
2022/11/14 09:56:45;;;;;;;63.65;42.20;;;6.40;99.90;;;;;;5052784;28;20090;-44
2022/11/14 09:59:12;;;;;;;68.95;42.83;;;6.40;99.90;;;;;;5054014;28;20450;-42
2022/11/14 10:01:56;;;;;;;64.38;41.08;;;6.40;99.90;;;;;;5054043;28;20048;-41
2022/11/14 10:04:51;;;;;;;66.22;43.03;;;6.40;99.90;;;;;;5054046;28;20045;-45
2022/11/14 10:07:31;;;;;;;63.50;42.00;;;6.40;99.90;;;;;;5066703;28;20048;-42
2022/11/14 10:10:02;;;;;;;65.80;41.70;;;6.50;99.90;;;;;;5051116;28;20152;-44
2022/11/14 10:12:39;;;;;;;62.45;41.30;;;6.50;99.90;;;;;;5054234;28;20044;-43
2022/11/14 10:15:14;;;;;;;58.63;39.20;;;6.60;99.90;;;;;;5051505;28;20045;-42
2022/11/14 10:17:51;;;;;;;62.83;40.90;;;6.60;99.90;;;;;;5053682;28;20410;-43
2022/11/14 10:20:52;;;;;;;62.00;40.28;;;6.60;99.90;;;;;;5053682;28;20044;-47
2022/11/14 10:23:18;;;;;;;59.30;38.80;;;6.70;99.90;;;;;;4987652;28;20966;-43
2022/11/14 10:25:50;;;;;;;55.20;36.65;;;6.70;99.90;;;;;;4992077;28;20050;-44
2022/11/14 10:28:24;;;;;;;58.80;38.50;;;6.70;99.90;;;;;;4991776;28;20129;-46
2022/11/14 10:31:08;;;;;;;57.50;38.97;;;6.80;99.90;;;;;;4991065;28;20064;-42
2022/11/14 10:33:52;;;;;;;58.60;37.85;;;6.80;99.90;;;;;;4991061;28;20511;-45
2022/11/14 10:36:18;;;;;;;54.63;38.08;;;6.90;99.90;;;;;;5002268;28;20137;-44
2022/11/14 10:38:52;;;;;;;57.40;39.20;;;6.90;99.90;;;;;;4985430;28;20465;-44
2022/11/14 10:41:18;;;;;;;59.70;39.35;;;6.90;99.90;;;;;;4974588;28;20603;-44
2022/11/14 10:43:48;;;;;;;57.25;38.15;;;7.00;99.90;;;;;;4991349;28;20101;-47
2022/11/14 10:46:36;;;;;;;58.28;40.55;;;7.10;99.90;;;;;;4991680;28;20484;-44
2022/11/14 10:49:18;;;;;;;54.70;37.85;;;7.10;99.90;;;;;;4994437;28;20061;-44
2022/11/14 10:51:49;;;;;;;54.42;36.33;;;7.10;99.90;;;;;;4990767;28;20204;-47
2022/11/14 10:54:20;;;;;;;62.45;38.58;;;7.20;99.90;;;;;;4977364;28;20050;-43
2022/11/14 10:56:51;;;;;;;52.45;35.13;;;7.20;99.90;;;;;;5017023;28;20091;-46
2022/11/14 10:59:17;;;;;;;54.92;36.28;;;7.20;99.90;;;;;;5056322;28;20391;-44
2022/11/14 11:01:49;;;;;;;57.72;36.85;;;7.20;99.90;;;;;;5057316;28;20131;-45
2022/11/14 11:04:26;;;;;;;58.22;37.20;;;7.20;99.90;;;;;;5056696;28;20048;-42
2022/11/14 11:07:06;;;;;;;52.58;35.95;;;7.30;99.90;;;;;;5057056;28;20242;-49
2022/11/14 11:12:24;;;;;;;54.15;36.25;;;7.40;99.90;;;;;;5057403;28;20114;-46
2022/11/14 11:15:13;;;;;;;56.60;37.65;;;7.40;99.90;;;;;;5056236;28;20101;-47
2022/11/14 11:17:53;;;;;;;60.55;38.15;;;7.40;99.90;;;;;;5056916;28;20059;-42
2022/11/14 11:20:27;;;;;;;54.08;37.00;;;7.50;99.90;;;;;;5056210;28;20048;-44
2022/11/14 11:23:25;;;;;;;53.38;37.20;;;7.50;99.90;;;;;;5052473;28;20053;-42
2022/11/14 11:26:15;;;;;;;53.47;37.03;;;7.50;99.90;;;;;;5057080;28;20463;-43
2022/11/14 11:28:40;;;;;;;54.50;35.50;;;7.50;99.90;;;;;;5046790;28;20048;-43
2022/11/14 11:31:09;;;;;;;51.72;37.08;;;7.50;99.90;;;;;;5056018;28;20440;-44
2022/11/14 11:33:36;;;;;;;50.90;34.72;;;7.50;99.90;;;;;;5054463;28;20102;-43
2022/11/14 11:36:15;;;;;;;49.03;33.83;;;7.60;99.90;;;;;;5056431;28;20044;-46
2022/11/14 11:38:41;;;;;;;56.28;37.90;;;7.50;99.90;;;;;;5056795;28;20059;-44
2022/11/14 11:41:28;;;;;;;52.25;36.75;;;7.50;99.90;;;;;;5051859;28;20351;-46
2022/11/14 11:43:58;;;;;;;54.92;36.08;;;7.60;99.90;;;;;;5055796;28;20049;-41
2022/11/14 11:46:59;;;;;;;50.67;36.33;;;7.60;99.90;;;;;;5038983;28;20105;-46
2022/11/14 11:49:37;;;;;;;50.10;35.60;;;7.60;99.90;;;;;;5056839;28;20518;-44
2022/11/14 11:52:18;;;;;;;53.00;35.92;;;7.70;99.90;;;;;;5055689;28;20059;-45
2022/11/14 11:54:58;;;;;;;45.95;32.70;;;7.70;99.90;;;;;;5054536;28;20054;-44
2022/11/14 11:57:30;;;;;;;51.70;33.35;;;7.70;99.90;;;;;;5056519;28;20052;-42
2022/11/14 12:00:04;;;;;;;50.78;36.15;;;7.80;99.90;;;;;;5056130;28;20506;-44
2022/11/14 12:02:30;;;;;;;49.60;34.72;;;7.80;99.90;;;;;;5056860;28;20542;-41
2022/11/14 12:04:57;;;;;;;55.50;37.35;;;7.80;99.90;;;;;;5053821;28;20090;-43
2022/11/14 12:07:37;;;;;;;47.67;33.95;;;7.80;99.90;;;;;;5055666;28;20121;-46
2022/11/14 12:10:12;;;;;;;50.28;36.03;;;7.80;99.90;;;;;;5054933;28;20044;-44
2022/11/14 12:12:38;;;;;;;53.10;35.00;;;7.80;99.90;;;;;;5056138;28;20391;-43
2022/11/14 12:15:47;;;;;;;51.38;37.28;;;7.90;99.90;;;;;;5055330;28;20486;-45
2022/11/14 12:18:28;;;;;;;53.78;36.60;;;7.90;99.90;;;;;;5014369;28;20709;-42
2022/11/14 12:20:59;;;;;;;48.83;34.15;;;7.80;99.90;;;;;;4996415;28;20097;-44
2022/11/14 12:23:55;;;;;;;52.03;35.67;;;7.80;99.90;;;;;;4993294;28;20515;-41
2022/11/14 12:26:21;;;;;;;51.58;37.47;;;7.80;99.90;;;;;;5012635;28;20427;-43
2022/11/14 12:29:20;;;;;;;48.00;36.10;;;7.80;99.90;;;;;;5006754;28;20060;-47
2022/11/14 12:31:47;;;;;;;50.63;35.00;;;7.80;99.90;;;;;;5023799;28;20131;-46
2022/11/14 12:34:23;;;;;;;49.00;35.00;;;7.90;99.90;;;;;;5011763;28;20517;-46
2022/11/14 12:36:49;;;;;;;50.30;35.78;;;7.90;99.90;;;;;;5012438;28;20057;-42
2022/11/14 12:39:29;;;;;;;49.83;34.75;;;7.90;99.90;;;;;;5012452;28;20971;-44
2022/11/14 12:42:06;;;;;;;50.67;36.40;;;7.90;99.90;;;;;;5012163;28;20073;-42
2022/11/14 12:44:37;;;;;;;48.95;34.45;;;8.00;99.90;;;;;;5011529;28;20049;-46
2022/11/14 12:47:05;;;;;;;49.03;34.95;;;8.00;99.90;;;;;;5011917;28;20200;-47